Cabarete, Dominican Republic
Current Conditions -  °F | °C
As of 6:00 PM on Wednesday 22 Oct 2014 (Local Time) from MDCY Reporting Station
Few Clouds Few Clouds  
Wind Chill: 86°   Ceiling: Unl
Heat Index: 97°   Visibility: 6mi
Dew Point: 77°   Wind: 6mph
Humidity: 74%   Direction: 100°E
Pressure: 29.85"   Gusts: NA
Location:  19.57°N, 70.02°W
Report Text: MDCY 222200Z 10005KT 9999 FEW020CB FEW020 30/25 Q1011 CB/SW/W
Loading
Personal Weather Stations






























Interactive Weather Map
Tropical Storm Tracking
New forecast layout! Learn more

10-Day Weather Forecast

Advertisements
Track Severe Weather on mobile